createdAt,value
2019-01-13T00:02:15.580Z,36.03
2019-01-13T00:04:45.958Z,45.73
2019-01-13T00:07:17.541Z,53.63
2019-01-13T00:09:48.152Z,48.48
2019-01-13T00:12:18.741Z,43.77
2019-01-13T00:14:50.657Z,53.67
2019-01-13T00:17:21.257Z,44.30
2019-01-13T00:19:53.005Z,52.03
2019-01-13T00:22:23.347Z,45.10
2019-01-13T00:25:02.127Z,49.85
2019-01-13T00:27:29.183Z,50.03
2019-01-13T00:29:59.863Z,43.00
2019-01-13T00:32:30.260Z,42.87
2019-01-13T00:35:00.981Z,47.83
2019-01-13T00:37:33.338Z,42.80
2019-01-13T00:40:04.427Z,42.40
2019-01-13T00:42:39.824Z,40.13
2019-01-13T00:45:11.081Z,47.40
2019-01-13T00:47:41.775Z,40.63
2019-01-13T00:50:14.270Z,45.17
2019-01-13T00:52:45.195Z,41.20
2019-01-13T00:55:15.992Z,37.60
2019-01-13T00:57:46.455Z,42.73
2019-01-13T01:00:26.521Z,41.37
2019-01-13T01:02:53.178Z,39.00
2019-01-13T01:05:24.237Z,40.77
2019-01-13T01:07:54.943Z,35.10
2019-01-13T01:10:25.608Z,41.00
2019-01-13T01:13:04.884Z,43.13
2019-01-13T01:15:35.278Z,42.08
2019-01-13T01:18:05.761Z,38.83
2019-01-13T01:20:37.087Z,36.33
2019-01-13T01:23:07.398Z,36.27
2019-01-13T01:25:39.125Z,40.40
2019-01-13T01:28:09.525Z,41.68
2019-01-13T01:30:40.189Z,41.00
2019-01-13T01:33:10.855Z,39.33
2019-01-13T01:35:41.512Z,37.77
2019-01-13T01:38:12.077Z,38.93
2019-01-13T01:40:42.828Z,37.57
2019-01-13T01:43:13.491Z,35.58
2019-01-13T01:45:43.850Z,41.57
2019-01-13T01:48:14.546Z,45.15
2019-01-13T01:50:44.876Z,37.80
2019-01-13T01:53:24.248Z,42.30
2019-01-13T01:55:49.251Z,36.03
2019-01-13T01:58:26.499Z,36.65
2019-01-13T02:00:56.004Z,39.57
2019-01-13T02:03:26.739Z,41.23
2019-01-13T02:05:57.029Z,42.90
2019-01-13T02:08:28.659Z,45.92
2019-01-13T02:10:58.981Z,43.67
2019-01-13T02:13:29.594Z,46.60
2019-01-13T02:15:59.911Z,50.63
2019-01-13T02:18:30.508Z,47.62
2019-01-13T02:21:07.242Z,60.67
2019-01-13T02:23:37.742Z,65.97
2019-01-13T02:26:08.101Z,64.43
2019-01-13T02:28:40.094Z,74.57
2019-01-13T02:31:10.437Z,66.70
2019-01-13T02:33:41.804Z,65.57
2019-01-13T02:36:12.434Z,62.20
2019-01-13T02:38:45.386Z,54.38
2019-01-13T02:41:17.308Z,52.70
2019-01-13T02:43:47.907Z,47.37
2019-01-13T02:46:18.233Z,46.23
2019-01-13T02:48:49.776Z,49.43
2019-01-13T02:51:20.089Z,50.03
2019-01-13T02:53:50.426Z,43.70
2019-01-13T02:56:21.119Z,47.97
2019-01-13T02:58:51.793Z,54.43
2019-01-13T03:01:23.535Z,55.90
2019-01-13T03:03:53.899Z,48.30
2019-01-13T03:06:24.401Z,42.30
2019-01-13T03:08:58.133Z,49.63
2019-01-13T03:11:28.469Z,41.53
2019-01-13T03:13:58.869Z,42.60
2019-01-13T03:16:29.685Z,36.05
2019-01-13T03:18:59.996Z,44.93
2019-01-13T03:21:30.573Z,39.73
2019-01-13T03:24:00.943Z,44.73
2019-01-13T03:26:34.723Z,41.60
2019-01-13T03:29:05.215Z,42.73
2019-01-13T03:31:40.721Z,44.18
2019-01-13T03:34:11.035Z,52.47
2019-01-13T03:36:41.310Z,52.00
2019-01-13T03:39:11.765Z,50.17
2019-01-13T03:41:42.799Z,175.32
2019-01-13T03:44:13.155Z,579.73
2019-01-13T03:46:44.856Z,575.80
2019-01-13T03:49:15.177Z,437.20
2019-01-13T03:51:45.845Z,501.98
2019-01-13T03:54:16.741Z,457.52
2019-01-13T03:56:47.360Z,291.23
2019-01-13T03:59:17.992Z,200.13
2019-01-13T04:01:51.033Z,124.52
2019-01-13T04:04:21.510Z,111.33
2019-01-13T04:06:51.854Z,91.90
2019-01-13T04:09:27.078Z,81.93
2019-01-13T04:11:57.504Z,119.93
2019-01-13T04:14:28.506Z,90.92
2019-01-13T04:16:58.885Z,95.67
2019-01-13T04:19:29.250Z,111.80
2019-01-13T04:21:59.800Z,91.87
2019-01-13T04:24:30.219Z,102.80
2019-01-13T04:27:00.787Z,124.80
2019-01-13T04:29:31.108Z,116.50
2019-01-13T04:32:01.624Z,104.40
2019-01-13T04:34:32.214Z,112.88
2019-01-13T04:37:02.852Z,99.27
2019-01-13T04:39:35.797Z,103.40
2019-01-13T04:42:06.167Z,122.80
2019-01-13T04:44:38.344Z,132.30
2019-01-13T04:47:12.056Z,136.17
2019-01-13T04:49:42.362Z,137.67
2019-01-13T04:52:12.646Z,131.37
2019-01-13T04:54:42.980Z,113.83
2019-01-13T04:57:18.448Z,92.87
2019-01-13T04:59:47.227Z,91.93
2019-01-13T05:02:17.546Z,80.45
2019-01-13T05:04:48.003Z,80.00
2019-01-13T05:07:20.464Z,72.82
2019-01-13T05:09:50.991Z,77.50
2019-01-13T05:12:21.343Z,98.30
2019-01-13T05:14:51.705Z,100.03
2019-01-13T05:17:22.628Z,93.90
2019-01-13T05:19:52.972Z,83.77
2019-01-13T05:22:26.513Z,78.55
2019-01-13T05:24:56.842Z,69.93
2019-01-13T05:27:29.779Z,69.05
2019-01-13T05:30:00.193Z,61.13
2019-01-13T05:32:32.047Z,66.62
2019-01-13T05:35:02.313Z,59.87
2019-01-13T05:37:33.140Z,66.57
2019-01-13T05:40:03.458Z,64.60
2019-01-13T05:42:33.975Z,62.43
2019-01-13T05:45:05.601Z,55.10
2019-01-13T05:47:36.272Z,57.40
2019-01-13T05:50:07.986Z,52.27
2019-01-13T05:52:39.978Z,54.95
2019-01-13T05:55:10.370Z,49.33
2019-01-13T05:57:47.175Z,58.83
2019-01-13T06:00:25.869Z,46.33
2019-01-13T06:02:58.567Z,58.03
2019-01-13T06:05:29.464Z,48.27
2019-01-13T06:08:00.176Z,52.17
2019-01-13T06:10:30.487Z,47.20
2019-01-13T06:13:03.654Z,48.83
2019-01-13T06:15:34.642Z,45.93
2019-01-13T06:18:05.227Z,51.13
2019-01-13T06:20:35.529Z,45.43
2019-01-13T06:23:07.042Z,42.14
2019-01-13T06:25:42.330Z,46.33
2019-01-13T06:28:09.844Z,44.95
2019-01-13T06:30:40.124Z,40.80
2019-01-13T06:33:10.698Z,40.80
2019-01-13T06:35:41.007Z,39.67
2019-01-13T06:38:16.834Z,45.00
2019-01-13T06:40:47.153Z,43.83
2019-01-13T06:43:17.438Z,51.47
2019-01-13T06:45:47.754Z,41.85
2019-01-13T06:48:18.185Z,47.17
2019-01-13T06:50:48.694Z,41.25
2019-01-13T06:53:19.159Z,37.60
2019-01-13T06:55:49.642Z,39.47
2019-01-13T06:58:19.978Z,43.70
2019-01-13T07:00:52.297Z,42.73
2019-01-13T07:03:22.706Z,36.37
2019-01-13T07:05:53.130Z,36.57
2019-01-13T07:08:23.951Z,39.23
2019-01-13T07:10:54.556Z,37.63
2019-01-13T07:13:26.317Z,42.60
2019-01-13T07:15:58.964Z,44.67
2019-01-13T07:18:30.536Z,50.63
2019-01-13T07:21:02.758Z,53.02
2019-01-13T07:23:33.103Z,75.37
2019-01-13T07:26:04.774Z,83.27
2019-01-13T07:28:35.452Z,83.67
2019-01-13T07:31:06.062Z,84.52
2019-01-13T07:33:36.412Z,91.33
2019-01-13T07:36:07.141Z,86.60
2019-01-13T07:38:37.667Z,99.30
2019-01-13T07:41:12.243Z,85.47
2019-01-13T07:43:42.853Z,76.23
2019-01-13T07:46:20.644Z,59.53
2019-01-13T07:48:51.209Z,74.60
2019-01-13T07:51:24.342Z,77.95
2019-01-13T07:53:56.237Z,74.73
2019-01-13T07:56:27.401Z,54.03
2019-01-13T07:58:59.515Z,41.90
2019-01-13T08:01:29.828Z,43.10
2019-01-13T08:04:00.173Z,39.30
2019-01-13T08:06:31.913Z,34.18
2019-01-13T08:09:05.284Z,35.95
2019-01-13T08:11:35.579Z,31.87
2019-01-13T08:14:06.526Z,36.23
2019-01-13T08:16:39.060Z,32.85
2019-01-13T08:19:09.716Z,30.17
2019-01-13T08:21:40.049Z,28.17
2019-01-13T08:24:10.390Z,34.78
2019-01-13T08:26:49.906Z,31.17
2019-01-13T08:29:20.581Z,29.52
2019-01-13T08:32:02.042Z,27.10
2019-01-13T08:34:32.527Z,23.93
2019-01-13T08:37:14.546Z,30.60
2019-01-13T08:39:45.370Z,30.73
2019-01-13T08:42:17.072Z,30.85
2019-01-13T08:44:49.121Z,27.70
2019-01-13T08:47:19.524Z,29.27
2019-01-13T08:49:50.056Z,31.83
2019-01-13T08:52:25.983Z,29.13
2019-01-13T08:54:56.361Z,30.47
2019-01-13T08:57:26.855Z,27.37
2019-01-13T09:02:19.764Z,31.97
2019-01-13T09:04:50.075Z,33.73
2019-01-13T09:07:23.200Z,33.47
2019-01-13T09:10:14.216Z,32.37
2019-01-13T09:12:44.922Z,36.68
2019-01-13T09:15:19.841Z,38.27
2019-01-13T09:17:52.536Z,43.70
2019-01-13T09:20:28.225Z,39.37
2019-01-13T09:23:00.314Z,48.55
2019-01-13T09:25:32.418Z,43.97
2019-01-13T09:28:04.002Z,49.47
2019-01-13T09:30:34.331Z,47.87
2019-01-13T09:33:08.013Z,41.10
2019-01-13T09:35:38.297Z,51.43
2019-01-13T09:38:09.186Z,55.25
2019-01-13T09:40:39.455Z,51.80
2019-01-13T09:43:10.022Z,54.50
2019-01-13T09:45:40.338Z,57.90
2019-01-13T09:48:10.927Z,50.40
2019-01-13T09:50:45.839Z,52.13
2019-01-13T09:53:16.205Z,51.30
2019-01-13T09:55:46.519Z,60.67
2019-01-13T09:58:17.156Z,56.97
2019-01-13T10:00:47.758Z,53.00
2019-01-13T10:03:18.295Z,54.53
2019-01-13T10:05:48.815Z,51.53
2019-01-13T10:08:20.595Z,42.73
2019-01-13T10:10:52.744Z,54.57
2019-01-13T10:13:32.229Z,43.72
2019-01-13T10:16:02.624Z,50.27
2019-01-13T10:18:34.134Z,42.50
2019-01-13T10:21:04.781Z,49.38
2019-01-13T10:23:36.480Z,43.15
2019-01-13T10:26:11.446Z,41.23
2019-01-13T10:28:42.424Z,47.73
2019-01-13T10:31:12.897Z,46.27
2019-01-13T10:33:45.753Z,49.30
2019-01-13T10:36:16.096Z,47.50
2019-01-13T10:38:46.778Z,41.02
2019-01-13T10:41:17.510Z,37.85
2019-01-13T10:43:49.780Z,38.03
2019-01-13T10:46:22.271Z,40.38
2019-01-13T10:49:01.532Z,37.83
2019-01-13T10:51:32.089Z,42.10
2019-01-13T10:54:09.247Z,36.28
2019-01-13T10:56:41.846Z,30.50
2019-01-13T10:59:12.200Z,32.53
2019-01-13T11:01:47.751Z,34.60
2019-01-13T11:04:18.107Z,31.40
2019-01-13T11:06:48.483Z,39.33
2019-01-13T11:09:19.105Z,28.85
2019-01-13T11:11:55.970Z,32.30
2019-01-13T11:14:28.179Z,28.50
2019-01-13T11:16:58.667Z,25.97
2019-01-13T11:19:29.308Z,27.77
2019-01-13T11:21:59.843Z,28.17
2019-01-13T11:24:31.991Z,28.55
2019-01-13T11:27:02.405Z,24.93
2019-01-13T11:29:34.597Z,17.98
2019-01-13T11:32:07.979Z,20.33
2019-01-13T11:34:39.157Z,18.97
2019-01-13T11:37:11.259Z,20.33
2019-01-13T11:39:41.834Z,18.77
2019-01-13T11:42:17.113Z,20.23
2019-01-13T11:44:47.760Z,19.50
2019-01-13T11:47:18.135Z,20.73
2019-01-13T11:49:48.762Z,19.80
2019-01-13T11:52:19.114Z,20.53
2019-01-13T11:54:50.441Z,17.73
2019-01-13T11:57:20.787Z,15.90
2019-01-13T11:59:56.423Z,18.78
2019-01-13T12:02:32.534Z,19.67
2019-01-13T12:05:01.066Z,20.88
2019-01-13T12:07:33.055Z,17.67
2019-01-13T12:10:15.471Z,18.90
2019-01-13T12:12:44.642Z,17.30
2019-01-13T12:15:18.474Z,16.70
2019-01-13T12:17:49.969Z,18.33
2019-01-13T12:20:24.886Z,19.15
2019-01-13T12:22:54.090Z,18.97
2019-01-13T12:25:29.498Z,19.73
2019-01-13T12:28:00.895Z,22.03
2019-01-13T12:30:32.989Z,20.15
2019-01-13T12:33:03.522Z,19.77
2019-01-13T12:35:34.166Z,18.27
2019-01-13T12:38:05.023Z,19.80
2019-01-13T12:40:36.719Z,17.52
2019-01-13T12:43:09.263Z,18.73
2019-01-13T12:45:39.808Z,19.62
2019-01-13T12:48:16.181Z,25.63
2019-01-13T12:50:48.426Z,17.90
2019-01-13T12:53:18.811Z,23.27
2019-01-13T12:55:50.904Z,22.80
2019-01-13T12:58:21.601Z,16.02
2019-01-13T13:00:58.530Z,19.73
2019-01-13T13:03:31.756Z,23.57
2019-01-13T13:06:06.623Z,15.60
2019-01-13T13:08:38.604Z,19.17
2019-01-13T13:11:10.335Z,15.30
2019-01-13T13:13:40.950Z,16.13
2019-01-13T13:16:11.583Z,18.23
2019-01-13T13:18:42.060Z,17.13
2019-01-13T13:21:12.950Z,16.52
2019-01-13T13:23:46.632Z,13.17
2019-01-13T13:26:17.230Z,15.80
2019-01-13T13:28:51.570Z,21.47
2019-01-13T13:31:22.554Z,16.06
2019-01-13T13:33:54.874Z,15.00
2019-01-13T13:36:27.894Z,19.73
2019-01-13T13:38:58.538Z,14.43
2019-01-13T13:41:31.021Z,13.70
2019-01-13T13:44:01.406Z,18.83
2019-01-13T13:46:32.292Z,19.70
2019-01-13T13:49:02.788Z,14.27
2019-01-13T13:51:37.932Z,18.12
2019-01-13T13:54:08.304Z,15.40
2019-01-13T13:56:39.011Z,14.65
2019-01-13T13:59:09.385Z,13.03
2019-01-13T14:01:39.929Z,17.97
2019-01-13T14:04:10.381Z,14.97
2019-01-13T14:06:40.948Z,18.23
2019-01-13T14:09:13.111Z,16.47
2019-01-13T14:11:43.897Z,15.30
2019-01-13T14:14:14.271Z,18.67
2019-01-13T14:16:46.884Z,17.47
2019-01-13T14:19:19.415Z,23.65
2019-01-13T14:21:49.743Z,16.40
2019-01-13T14:24:20.226Z,22.60
2019-01-13T14:26:51.031Z,18.73
2019-01-13T14:29:21.446Z,20.08
2019-01-13T14:31:51.813Z,19.20
2019-01-13T14:34:25.475Z,19.27
2019-01-13T14:36:55.817Z,20.13
2019-01-13T14:39:26.466Z,21.28
2019-01-13T14:41:58.776Z,22.23
2019-01-13T14:44:29.486Z,23.15
2019-01-13T14:47:01.941Z,19.10
2019-01-13T14:49:33.982Z,20.35
2019-01-13T14:52:04.504Z,17.47
2019-01-13T14:54:37.154Z,21.52
2019-01-13T14:57:07.868Z,22.23
2019-01-13T14:59:43.540Z,19.23
2019-01-13T15:02:14.998Z,18.13
2019-01-13T15:04:56.587Z,19.70
2019-01-13T15:07:22.122Z,15.97
2019-01-13T15:09:53.927Z,18.75
2019-01-13T15:12:24.513Z,20.67
2019-01-13T15:14:55.287Z,23.20
2019-01-13T15:17:25.670Z,18.83
2019-01-13T15:19:57.531Z,22.62
2019-01-13T15:22:28.047Z,19.60
2019-01-13T15:25:01.343Z,25.75
2019-01-13T15:27:33.362Z,24.13
2019-01-13T15:30:05.537Z,23.93
2019-01-13T15:32:35.922Z,20.87
2019-01-13T15:35:07.248Z,24.43
2019-01-13T15:37:40.959Z,28.67
2019-01-13T15:40:15.581Z,27.13
2019-01-13T15:42:49.029Z,25.30
2019-01-13T15:45:21.040Z,27.70
2019-01-13T15:47:51.366Z,26.20
2019-01-13T15:50:25.389Z,29.58
2019-01-13T15:52:55.760Z,32.00
2019-01-13T15:55:27.657Z,25.27
2019-01-13T15:57:58.199Z,31.67
2019-01-13T16:00:34.238Z,27.13
2019-01-13T16:03:08.301Z,30.53
2019-01-13T16:05:42.561Z,28.10
2019-01-13T16:08:14.559Z,34.80
2019-01-13T16:10:48.413Z,29.13
2019-01-13T16:13:18.889Z,32.83
2019-01-13T16:15:49.655Z,38.83
2019-01-13T16:18:20.007Z,36.03
2019-01-13T16:20:51.816Z,30.60
2019-01-13T16:23:24.588Z,30.33
2019-01-13T16:25:55.560Z,33.30
2019-01-13T16:28:25.917Z,28.57
2019-01-13T16:30:56.855Z,32.50
2019-01-13T16:33:27.486Z,32.23
2019-01-13T16:36:01.738Z,26.73
2019-01-13T16:38:32.568Z,37.47
2019-01-13T16:41:08.568Z,35.00
2019-01-13T16:43:40.202Z,38.73
2019-01-13T16:46:11.027Z,32.03
2019-01-13T16:48:41.634Z,31.67
2019-01-13T16:51:13.291Z,31.67
2019-01-13T16:53:43.712Z,32.40
2019-01-13T16:56:14.556Z,30.93
2019-01-13T16:58:45.529Z,27.65
2019-01-13T17:01:15.953Z,32.43
2019-01-13T17:03:47.666Z,31.87
2019-01-13T17:06:18.010Z,31.93
2019-01-13T17:08:48.951Z,31.60
2019-01-13T17:11:22.700Z,38.77
2019-01-13T17:13:55.744Z,32.73
2019-01-13T17:16:31.250Z,33.60
2019-01-13T17:19:01.376Z,41.60
2019-01-13T17:21:31.828Z,34.27
2019-01-13T17:24:02.697Z,32.30
2019-01-13T17:26:33.118Z,27.20
2019-01-13T17:29:03.784Z,31.43
2019-01-13T17:31:34.175Z,28.30
2019-01-13T17:34:04.711Z,29.73
2019-01-13T17:36:40.921Z,29.00
2019-01-13T17:39:13.476Z,23.30
2019-01-13T17:41:44.048Z,20.77
2019-01-13T17:44:14.694Z,20.83
2019-01-13T17:46:45.066Z,17.27
2019-01-13T17:49:15.698Z,24.15
2019-01-13T17:51:46.062Z,16.77
2019-01-13T17:54:16.761Z,20.07
2019-01-13T17:56:47.430Z,24.33
2019-01-13T17:59:18.030Z,26.50
2019-01-13T18:01:52.636Z,17.30
2019-01-13T18:04:23.505Z,24.37
2019-01-13T18:06:53.973Z,16.50
2019-01-13T18:09:25.850Z,22.33
2019-01-13T18:11:57.252Z,20.67
2019-01-13T18:14:36.222Z,15.43
2019-01-13T18:17:07.572Z,15.00
2019-01-13T18:19:49.500Z,19.37
2019-01-13T18:22:20.484Z,8.37
2019-01-13T18:24:56.301Z,8.60
2019-01-13T18:27:28.383Z,8.87
2019-01-13T18:30:02.491Z,7.47
2019-01-13T18:32:33.093Z,10.50
2019-01-13T18:35:04.953Z,8.87
2019-01-13T18:37:48.428Z,10.10
2019-01-13T18:40:20.016Z,9.20
2019-01-13T18:42:51.927Z,5.10
2019-01-13T18:45:22.799Z,6.67
2019-01-13T18:47:55.355Z,14.60
2019-01-13T18:50:26.159Z,10.47
2019-01-13T18:53:04.153Z,11.20
2019-01-13T18:55:49.975Z,10.80
2019-01-13T18:58:22.681Z,9.05
2019-01-13T19:00:54.138Z,11.33
2019-01-13T19:03:24.877Z,5.97
2019-01-13T19:06:06.371Z,14.03
2019-01-13T19:08:33.334Z,9.63
2019-01-13T19:11:25.713Z,12.10
2019-01-13T19:14:42.076Z,18.27
2019-01-13T19:17:26.708Z,10.83
2019-01-13T19:20:21.603Z,14.28
2019-01-13T19:23:01.020Z,12.27
2019-01-13T19:25:38.139Z,10.55
2019-01-13T19:28:09.011Z,13.27
2019-01-13T19:30:51.523Z,14.83
2019-01-13T19:33:18.977Z,9.93
2019-01-13T19:36:06.528Z,12.97
2019-01-13T19:38:24.835Z,10.77
2019-01-13T19:40:55.978Z,10.68
2019-01-13T19:43:26.699Z,17.77
2019-01-13T19:45:57.273Z,25.00
2019-01-13T19:48:31.163Z,13.67
2019-01-13T19:51:01.926Z,18.37
2019-01-13T19:53:42.504Z,18.33
2019-01-13T19:56:12.959Z,11.40
2019-01-13T19:58:47.849Z,15.03
2019-01-13T20:01:19.949Z,21.00
2019-01-13T20:04:03.321Z,23.30
2019-01-13T20:06:24.415Z,14.10
2019-01-13T20:08:54.706Z,15.27
2019-01-13T20:11:25.091Z,18.30
2019-01-13T20:13:55.499Z,13.47
2019-01-13T20:16:26.331Z,14.28
2019-01-13T20:18:56.745Z,16.83
2019-01-13T20:21:27.652Z,15.25
2019-01-13T20:23:57.992Z,19.20
2019-01-13T20:26:29.048Z,20.30
2019-01-13T20:29:00.058Z,21.07
2019-01-13T20:31:31.099Z,22.20
2019-01-13T20:34:01.542Z,18.57
2019-01-13T20:36:33.094Z,22.15
2019-01-13T20:39:06.509Z,18.57
2019-01-13T20:41:37.210Z,19.32
2019-01-13T20:44:09.284Z,25.43
2019-01-13T20:46:41.630Z,26.57
2019-01-13T20:49:19.629Z,23.80
2019-01-13T20:51:47.929Z,23.35
2019-01-13T20:54:18.498Z,29.50
2019-01-13T20:56:51.279Z,18.37
2019-01-13T20:59:23.131Z,24.67
2019-01-13T21:01:57.736Z,22.57
2019-01-13T21:04:28.403Z,26.63
2019-01-13T21:07:00.021Z,23.20
2019-01-13T21:09:30.341Z,24.57
2019-01-13T21:12:01.139Z,17.30
2019-01-13T21:14:31.739Z,28.70
2019-01-13T21:17:02.313Z,23.93
2019-01-13T21:19:33.032Z,21.85
2019-01-13T21:22:03.704Z,23.07
2019-01-13T21:24:34.146Z,19.87
2019-01-13T21:27:04.676Z,22.40
2019-01-13T21:29:35.286Z,22.00
2019-01-13T21:32:05.997Z,17.97
2019-01-13T21:34:36.639Z,17.87
2019-01-13T21:37:07.141Z,20.80
2019-01-13T21:39:37.782Z,22.35
2019-01-13T21:42:10.367Z,18.60
2019-01-13T21:44:40.952Z,25.30
2019-01-13T21:47:11.302Z,26.27
2019-01-13T21:49:44.409Z,32.17
2019-01-13T21:52:18.869Z,23.70
2019-01-13T21:54:49.589Z,22.15
2019-01-13T21:57:22.817Z,31.27
2019-01-13T21:59:53.819Z,27.47
2019-01-13T22:02:24.298Z,29.47
2019-01-13T22:04:56.487Z,24.07
2019-01-13T22:07:27.211Z,25.17
2019-01-13T22:10:02.983Z,25.73
2019-01-13T22:12:33.340Z,21.17
2019-01-13T22:15:05.758Z,22.55
2019-01-13T22:17:36.212Z,21.47
2019-01-13T22:20:09.367Z,26.00
2019-01-13T22:22:44.567Z,23.60
2019-01-13T22:25:17.645Z,24.32
2019-01-13T22:27:48.092Z,27.43
2019-01-13T22:30:20.475Z,20.80
2019-01-13T22:32:50.829Z,20.03
2019-01-13T22:35:21.432Z,21.60
2019-01-13T22:37:55.854Z,28.40
2019-01-13T22:40:25.082Z,26.03
2019-01-13T22:42:55.579Z,28.17
2019-01-13T22:45:26.016Z,26.67
2019-01-13T22:47:56.270Z,25.83
2019-01-13T22:50:26.685Z,21.93
2019-01-13T22:52:57.479Z,16.60
2019-01-13T22:55:27.847Z,23.23
2019-01-13T22:57:58.138Z,15.00
2019-01-13T23:00:54.657Z,13.40
2019-01-13T23:03:25.078Z,14.50
2019-01-13T23:05:55.926Z,10.15
2019-01-13T23:08:26.593Z,10.83
2019-01-13T23:10:57.246Z,8.73
2019-01-13T23:13:27.898Z,6.23
2019-01-13T23:16:01.007Z,9.40
2019-01-13T23:18:31.318Z,7.87
2019-01-13T23:21:03.882Z,4.17
2019-01-13T23:23:34.512Z,9.67
2019-01-13T23:26:05.158Z,8.47
2019-01-13T23:28:35.841Z,9.70
2019-01-13T23:31:10.112Z,9.88
2019-01-13T23:33:40.970Z,12.93
2019-01-13T23:36:11.684Z,13.33
2019-01-13T23:38:42.301Z,15.17
2019-01-13T23:41:12.850Z,13.37
2019-01-13T23:43:43.310Z,11.77
2019-01-13T23:46:16.328Z,9.27
2019-01-13T23:48:46.751Z,15.77
2019-01-13T23:51:17.069Z,15.73
2019-01-13T23:53:47.651Z,20.17
2019-01-13T23:56:17.963Z,15.20
2019-01-13T23:58:50.845Z,13.37
